Academy, New Jersey
Current Conditions -  °F | °C
As of 8:51 PM on Saturday 22 Nov 2014 (Local Time) from KEWR Reporting Station
Overcast Overcast  
Wind Chill: 35°   Ceiling: 7000
Heat Index: 42°   Visibility: 10mi
Dew Point: 19°   Wind: 13mph
Humidity: 40%   Direction: 230°SW
Pressure: 30.23"   Gusts: NA
Location:  40.7334°N, 74.1735°W
Report Text: KEWR 230151Z 23011KT 10SM SCT050 BKN070 OVC090 06/M07 A3023 RMK AO2 SLP235 T00561072
Loading
Personal Weather Stations






























Interactive Weather Map New forecast layout! Learn more

10-Day Weather Forecast

Advertisements
Track Severe Weather on mobile